Time;durP1;ratioP1;P1;durP2;ratioP2;P2;SDS_P1;SDS_P2;PMS_P1;PMS_P2;Temp;Humidity;BMP_temperature;BMP_pressure;BME280_temperature;BME280_humidity;BME280_pressure;Samples;Min_cycle;Max_cycle;Signal;HPM_P1;HPM_P2
2022/09/05 00:05:04;;;;;;;6.90;4.82;;;;;;;16.68;85.94;98292.53;10463761;28;20078;-62
2022/09/05 00:10:05;;;;;;;6.47;4.95;;;;;;;16.68;86.13;98305.63;10462814;28;20490;-62
2022/09/05 00:15:14;;;;;;;7.15;4.75;;;;;;;16.67;86.06;98303.88;10462893;28;20066;-62
2022/09/05 00:20:35;;;;;;;6.53;5.23;;;;;;;16.47;86.07;98271.03;10462767;28;20059;-62
2022/09/05 00:25:45;;;;;;;7.15;5.25;;;;;;;16.69;85.98;98315.22;10458801;28;20075;-62
2022/09/05 00:31:16;;;;;;;9.07;5.57;;;;;;;16.71;85.89;98305.56;10462390;28;20070;-62
2022/09/05 00:36:54;;;;;;;6.82;5.35;;;;;;;16.69;85.89;98304.72;10455708;28;20074;-62
2022/09/05 00:41:55;;;;;;;8.00;5.22;;;;;;;16.64;86.28;98311.81;10461669;28;20067;-62
2022/09/05 00:47:04;;;;;;;5.50;4.90;;;;;;;16.55;86.47;98310.19;10461421;28;20505;-62
2022/09/05 00:52:12;;;;;;;8.48;5.45;;;;;;;16.64;87.05;98319.66;10462308;28;20158;-62
2022/09/05 00:57:21;;;;;;;6.68;5.10;;;;;;;16.61;87.24;98324.97;10458113;28;20067;-62
2022/09/05 01:02:57;;;;;;;9.10;5.50;;;;;;;16.51;88.10;98330.34;10460956;28;20494;-62
2022/09/05 01:08:14;;;;;;;8.02;5.20;;;;;;;16.49;88.30;98321.66;10460510;28;20072;-62
2022/09/05 01:13:45;;;;;;;9.98;5.97;;;;;;;16.48;88.09;98325.13;10460085;28;20063;-62
2022/09/05 01:18:49;;;;;;;8.45;5.60;;;;;;;16.38;87.95;98302.59;10460114;28;20071;-62
2022/09/05 01:24:02;;;;;;;8.15;6.15;;;;;;;16.58;87.99;98325.00;10460411;28;20068;-62
2022/09/05 01:29:18;;;;;;;9.07;5.40;;;;;;;16.44;87.81;98313.00;10457762;28;20429;-62
2022/09/05 01:34:31;;;;;;;7.40;5.30;;;;;;;16.42;87.82;98320.00;10458171;28;20502;-62
2022/09/05 01:39:39;;;;;;;8.38;5.35;;;;;;;16.39;87.77;98327.91;10459696;28;20105;-62
2022/09/05 01:44:48;;;;;;;8.77;5.70;;;;;;;16.45;87.41;98333.06;10459043;28;20060;-62
2022/09/05 01:49:56;;;;;;;;;;;;;;;16.49;87.45;98315.56;10459302;28;20083;-62
2022/09/05 01:55:11;;;;;;;7.30;5.40;;;;;;;16.46;87.27;98310.34;10459224;28;20390;-62
2022/09/05 02:00:28;;;;;;;7.93;5.55;;;;;;;16.33;87.55;98299.19;10455377;28;20059;-62
2022/09/05 02:05:50;;;;;;;12.15;6.05;;;;;;;16.43;87.53;98306.00;10458291;28;20067;-62
2022/09/05 02:11:04;;;;;;;8.13;5.78;;;;;;;16.52;87.33;98324.22;10458732;28;20075;-62
2022/09/05 02:16:32;;;;;;;9.32;5.63;;;;;;;16.55;87.74;98328.53;10458210;28;20070;-62
2022/09/05 02:21:39;;;;;;;7.55;5.70;;;;;;;16.52;87.92;98311.09;10457559;28;20455;-62
2022/09/05 02:26:50;;;;;;;8.43;5.68;;;;;;;16.56;88.36;98316.28;10457761;28;20064;-62
2022/09/05 02:32:00;;;;;;;9.98;6.03;;;;;;;16.60;88.46;98317.97;10455439;28;20113;-62
2022/09/05 02:37:07;;;;;;;7.38;5.75;;;;;;;16.41;88.26;98291.22;10456988;28;20070;-62
2022/09/05 02:42:37;;;;;;;8.32;6.63;;;;;;;16.36;88.68;98309.63;10456964;28;20063;-62
2022/09/05 02:47:53;;;;;;;10.55;6.22;;;;;;;16.18;89.36;98312.50;10456640;28;20082;-62
2022/09/05 02:52:53;;;;;;;9.02;6.38;;;;;;;15.92;89.50;98292.78;10456921;28;20105;-62
2022/09/05 02:58:16;;;;;;;9.13;7.00;;;;;;;15.91;89.69;98306.78;10456411;28;20056;-62
2022/09/05 03:03:45;;;;;;;9.15;7.22;;;;;;;15.80;90.69;98324.38;10457089;28;20063;-62
2022/09/05 03:08:53;;;;;;;9.70;6.90;;;;;;;15.78;90.54;98331.34;10456449;28;20458;-62
2022/09/05 03:14:17;;;;;;;11.20;7.57;;;;;;;15.77;90.93;98332.25;10456460;28;20082;-62
2022/09/05 03:19:40;;;;;;;9.98;7.72;;;;;;;15.75;91.40;98347.94;10456239;28;20068;-62
2022/09/05 03:25:07;;;;;;;12.25;8.60;;;;;;;15.72;91.48;98350.63;10457002;28;20459;-62
2022/09/05 03:30:20;;;;;;;11.40;8.00;;;;;;;15.73;91.52;98343.63;10454482;28;20488;-62
2022/09/05 03:35:54;;;;;;;12.82;7.95;;;;;;;15.74;92.07;98340.09;10455890;28;20486;-62
2022/09/05 03:41:23;;;;;;;11.43;7.93;;;;;;;15.75;92.37;98352.31;10458383;28;20071;-62
2022/09/05 03:46:48;;;;;;;13.40;7.97;;;;;;;15.72;92.63;98358.47;10451213;28;20573;-62
2022/09/05 03:52:18;;;;;;;12.98;8.73;;;;;;;15.70;92.61;98365.47;10452267;28;20091;-62
2022/09/05 03:57:45;;;;;;;10.20;7.43;;;;;;;15.67;92.24;98361.13;10459789;28;20028;-62
2022/09/05 04:03:29;;;;;;;10.82;7.25;;;;;;;15.59;92.60;98367.34;10466323;28;20410;-62
2022/09/05 04:08:47;;;;;;;11.02;6.82;;;;;;;15.62;92.56;98372.50;10466927;28;20093;-62
2022/09/05 04:14:01;;;;;;;14.10;8.32;;;;;;;15.63;93.04;98379.50;10466097;28;20523;-62
2022/09/05 04:19:13;;;;;;;9.02;6.35;;;;;;;15.33;94.68;98391.16;10466096;28;20067;-62
2022/09/05 04:24:18;;;;;;;13.63;6.78;;;;;;;15.20;94.71;98390.38;10466042;28;20071;-62
2022/09/05 04:29:41;;;;;;;21.50;9.25;;;;;;;15.25;95.04;98394.72;10465785;28;20063;-62
2022/09/05 04:35:21;;;;;;;25.15;9.77;;;;;;;15.40;95.15;98412.00;10465404;28;20020;-62
2022/09/05 04:40:41;;;;;;;32.00;10.88;;;;;;;15.46;95.56;98411.94;10464782;28;20055;-62
2022/09/05 04:45:47;;;;;;;215.85;33.90;;;;;;;15.56;95.45;98415.31;10462409;28;20494;-62
2022/09/05 04:51:03;;;;;;;32.83;10.93;;;;;;;15.58;95.19;98421.41;10460316;28;20578;-62
2022/09/05 04:56:17;;;;;;;10.73;7.13;;;;;;;15.39;94.47;98401.56;10461142;28;20474;-62
2022/09/05 05:01:28;;;;;;;10.27;6.80;;;;;;;15.52;94.25;98429.31;10461490;28;20063;-62
2022/09/05 05:06:33;;;;;;;9.48;7.05;;;;;;;15.64;93.98;98434.41;10459993;28;20063;-62
2022/09/05 05:11:47;;;;;;;15.82;6.53;;;;;;;15.77;93.75;98448.25;10460822;28;20059;-62
2022/09/05 05:16:54;;;;;;;10.77;6.88;;;;;;;15.90;93.31;98435.91;10458108;28;20075;-62
2022/09/05 05:22:00;;;;;;;12.10;6.53;;;;;;;16.22;91.70;98450.38;10460243;28;20059;-62
2022/09/05 05:27:15;;;;;;;8.57;6.25;;;;;;;16.27;90.84;98456.41;10457618;28;20474;-62
2022/09/05 05:32:37;;;;;;;11.30;6.43;;;;;;;16.17;90.26;98465.28;10426244;28;20493;-62
2022/09/05 05:38:08;;;;;;;11.32;7.25;;;;;;;16.08;90.16;98472.34;10438905;28;20534;-62
2022/09/05 05:43:21;;;;;;;11.95;6.70;;;;;;;16.17;90.19;98471.38;10413295;28;20067;-62
2022/09/05 05:48:20;;;;;;;13.35;8.00;;;;;;;16.37;90.15;98470.25;10446562;28;20558;-62
2022/09/05 05:53:25;;;;;;;12.80;7.60;;;;;;;16.56;89.74;98468.25;10455680;28;20386;-62
2022/09/05 05:58:27;;;;;;;12.75;6.80;;;;;;;16.81;89.52;98474.91;10455849;28;20071;-62
2022/09/05 06:04:03;;;;;;;14.38;6.75;;;;;;;17.20;88.24;98467.34;10455777;28;20074;-62
2022/09/05 06:09:41;;;;;;;14.43;7.47;;;;;;;17.49;86.55;98476.47;10456182;28;20067;-62
2022/09/05 06:15:06;;;;;;;10.02;6.85;;;;;;;17.61;85.26;98476.25;10453338;28;20071;-62
2022/09/05 06:20:27;;;;;;;8.55;6.20;;;;;;;17.92;84.03;98481.00;10455780;28;20518;-61
2022/09/05 06:25:44;;;;;;;10.05;5.82;;;;;;;18.10;82.32;98482.38;10455534;28;20060;-60
2022/09/05 06:31:33;;;;;;;9.40;6.10;;;;;;;18.18;81.43;98488.38;10455307;28;20070;-62
2022/09/05 06:36:51;;;;;;;9.50;6.55;;;;;;;18.33;82.28;98474.91;10453161;28;20083;-63
2022/09/05 06:42:18;;;;;;;7.78;5.93;;;;;;;18.53;81.36;98482.38;10457015;28;20074;-62
2022/09/05 06:47:19;;;;;;;9.25;5.82;;;;;;;18.22;79.72;98483.91;10458488;28;20067;-62
2022/09/05 06:52:30;;;;;;;8.50;5.72;;;;;;;18.11;80.22;98478.88;10458245;28;20079;-62
2022/09/05 06:58:07;;;;;;;7.85;5.45;;;;;;;17.95;79.10;98478.31;10458561;28;20048;-62
2022/09/05 07:03:25;;;;;;;8.93;5.43;;;;;;;18.07;79.32;98482.44;10458565;28;20024;-63
2022/09/05 07:08:28;;;;;;;8.43;5.43;;;;;;;18.01;78.39;98472.06;10458260;28;20055;-62
2022/09/05 07:13:37;;;;;;;7.50;5.35;;;;;;;17.81;78.27;98475.06;10458669;28;20027;-63
2022/09/05 07:18:51;;;;;;;6.15;5.03;;;;;;;17.95;78.78;98468.66;10458068;28;20538;-62
2022/09/05 07:24:10;;;;;;;8.52;5.28;;;;;;;18.18;78.34;98465.56;10458137;28;20059;-62
2022/09/05 07:29:15;;;;;;;11.23;5.57;;;;;;;18.40;77.73;98468.63;10458292;28;20374;-63
2022/09/05 07:34:28;;;;;;;10.40;4.93;;;;;;;18.38;75.38;98438.00;10461057;28;20027;-62
2022/09/05 07:39:36;;;;;;;6.88;4.72;;;;;;;18.33;74.69;98458.28;10466382;28;20031;-63
2022/09/05 07:44:39;;;;;;;7.68;5.10;;;;;;;18.50;72.48;98464.06;10462166;28;20078;-63
2022/09/05 07:49:41;;;;;;;6.88;5.05;;;;;;;18.85;71.47;98467.66;10463905;28;20522;-63
2022/09/05 07:54:40;;;;;;;7.22;4.85;;;;;;;19.21;71.45;98470.34;10464437;28;20043;-63
2022/09/05 07:59:50;;;;;;;10.70;7.15;;;;;;;19.53;68.86;98461.63;10463502;28;20060;-63
2022/09/05 08:04:49;;;;;;;4.72;4.15;;;;;;;19.88;66.37;98462.47;10463367;28;20510;-63
2022/09/05 08:09:55;;;;;;;6.45;4.82;;;;;;;20.21;63.93;98465.97;10461482;28;20056;-62
2022/09/05 08:15:08;;;;;;;6.00;4.40;;;;;;;20.46;59.58;98454.72;10460928;28;20506;-63
2022/09/05 08:20:22;;;;;;;5.50;4.55;;;;;;;20.61;57.33;98471.84;10462405;28;20064;-62
2022/09/05 08:25:32;;;;;;;7.78;5.10;;;;;;;20.08;57.09;98448.78;10461845;28;20060;-62
2022/09/05 08:30:52;;;;;;;7.20;4.93;;;;;;;20.08;57.97;98472.50;10462696;28;20070;-62
2022/09/05 08:35:59;;;;;;;6.50;5.10;;;;;;;20.36;56.82;98479.63;10460962;28;20091;-60
2022/09/05 08:41:03;;;;;;;6.50;4.70;;;;;;;20.92;57.48;98479.72;10462965;28;20063;-60
2022/09/05 08:46:15;;;;;;;5.45;4.25;;;;;;;21.42;55.00;98479.00;10461063;28;20822;-60
2022/09/05 08:51:42;;;;;;;6.63;4.30;;;;;;;21.52;54.17;98477.78;10462464;28;20083;-60
2022/09/05 08:56:53;;;;;;;7.80;4.50;;;;;;;21.10;54.12;98494.06;10451950;28;20492;-60
2022/09/05 09:02:31;;;;;;;8.90;5.28;;;;;;;20.71;54.74;98494.41;10425913;28;20056;-63
2022/09/05 09:07:46;;;;;;;6.80;5.25;;;;;;;20.81;55.31;98482.66;10427959;28;20064;-63
2022/09/05 09:12:47;;;;;;;10.05;6.03;;;;;;;21.00;55.87;98482.94;10459218;28;20474;-63
2022/09/05 09:17:50;;;;;;;7.25;4.70;;;;;;;21.06;55.12;98464.31;10461230;28;20052;-62
2022/09/05 09:23:12;;;;;;;8.50;5.10;;;;;;;20.97;54.46;98434.72;10460736;28;20453;-62
2022/09/05 09:28:39;;;;;;;5.72;4.78;;;;;;;21.08;53.53;98486.22;10460940;28;20062;-63
2022/09/05 09:33:51;;;;;;;6.50;4.60;;;;;;;20.77;54.29;98477.53;10459891;28;20099;-63
2022/09/05 09:39:43;;;;;;;6.00;4.60;;;;;;;20.50;55.32;98488.88;10460262;28;20047;-62
2022/09/05 09:45:15;;;;;;;7.55;4.95;;;;;;;20.74;55.36;98480.28;10451201;28;20071;-60
2022/09/05 09:50:42;;;;;;;5.63;4.63;;;;;;;21.17;51.94;98474.50;10460333;28;20080;-62
2022/09/05 09:56:13;;;;;;;6.43;4.47;;;;;;;21.23;51.32;98468.19;10460195;28;20090;-62
2022/09/05 10:01:38;;;;;;;6.45;5.28;;;;;;;21.18;52.31;98470.97;10454947;28;20435;-62
2022/09/05 10:07:11;;;;;;;6.82;4.78;;;;;;;21.20;51.25;98460.34;10456963;28;20060;-62
2022/09/05 10:12:34;;;;;;;7.32;4.25;;;;;;;21.47;51.52;98443.59;10456615;28;20048;-62
2022/09/05 10:17:54;;;;;;;6.68;4.85;;;;;;;21.70;51.07;98447.25;10456832;28;20063;-62
2022/09/05 10:23:09;;;;;;;7.95;5.60;;;;;;;21.45;52.64;98415.53;10454417;28;20052;-63
2022/09/05 10:28:24;;;;;;;9.85;6.55;;;;;;;21.56;52.88;98445.06;10453870;28;20365;-62
2022/09/05 10:33:28;;;;;;;10.63;7.10;;;;;;;21.18;52.75;98444.56;10453257;28;20118;-63
2022/09/05 10:38:56;;;;;;;8.15;5.97;;;;;;;21.03;54.42;98440.66;10455792;28;20055;-62
2022/09/05 10:44:00;;;;;;;9.65;6.53;;;;;;;20.97;54.46;98446.13;10456448;28;20052;-62
2022/09/05 10:49:07;;;;;;;7.75;5.85;;;;;;;20.95;53.92;98434.75;10455716;28;20099;-63
2022/09/05 10:54:34;;;;;;;7.60;5.30;;;;;;;21.16;54.07;98420.00;10456247;28;20059;-62
2022/09/05 10:59:48;;;;;;;8.38;5.40;;;;;;;21.16;53.31;98403.31;10455886;28;20050;-62
2022/09/05 11:04:57;;;;;;;7.00;5.22;;;;;;;21.34;53.21;98413.28;10456174;28;20424;-62
2022/09/05 11:10:01;;;;;;;;;;;;;;;21.16;52.22;98404.16;10460759;28;20471;-62
2022/09/05 11:15:05;;;;;;;6.47;4.60;;;;;;;21.40;51.80;98407.75;10464072;28;19943;-62
2022/09/05 11:20:07;;;;;;;10.07;5.63;;;;;;;21.25;52.71;98400.38;10463893;28;20056;-62
2022/09/05 11:25:18;;;;;;;8.88;5.90;;;;;;;21.18;52.47;98394.41;10460715;28;20127;-63
2022/09/05 11:52:50;;;;;;;4.85;4.22;;;;;;;21.74;50.14;98382.81;10579765;27;20812;-56
2022/09/05 11:58:02;;;;;;;6.18;4.25;;;;;;;21.69;49.94;98382.13;10536977;28;20065;-56
2022/09/05 12:03:23;;;;;;;5.65;3.97;;;;;;;21.81;49.66;98375.53;10536763;28;20055;-56
2022/09/05 12:08:30;;;;;;;6.28;4.30;;;;;;;21.94;49.38;98372.41;10536412;28;20043;-56
2022/09/05 12:13:58;;;;;;;4.70;3.90;;;;;;;22.02;48.65;98371.28;10518249;28;20505;-56
2022/09/05 12:19:23;;;;;;;5.75;4.20;;;;;;;22.26;47.63;98357.09;10479850;28;20071;-56
2022/09/05 12:24:31;;;;;;;5.25;3.70;;;;;;;22.20;47.34;98356.47;10493745;28;20067;-56
2022/09/05 12:29:37;;;;;;;4.93;3.67;;;;;;;22.23;48.04;98357.22;10535705;28;20077;-57
2022/09/05 12:34:51;;;;;;;6.03;3.67;;;;;;;22.33;46.71;98348.00;10535275;28;20501;-57
2022/09/05 12:39:53;;;;;;;5.32;3.80;;;;;;;22.48;47.37;98348.31;10574354;27;20061;-57
2022/09/05 12:45:17;;;;;;;4.90;3.60;;;;;;;22.58;46.52;98344.41;10577571;27;20066;-57
2022/09/05 12:50:18;;;;;;;5.20;4.28;;;;;;;23.01;46.25;98330.28;10566989;27;20536;-57
2022/09/05 12:55:19;;;;;;;4.68;3.30;;;;;;;23.52;46.28;98336.09;10527624;27;20144;-57
2022/09/05 13:00:20;;;;;;;4.85;3.42;;;;;;;23.55;44.60;98329.78;10506321;28;20051;-57
2022/09/05 13:05:26;;;;;;;4.38;3.47;;;;;;;22.60;46.25;98322.25;10506148;28;20055;-57
2022/09/05 13:10:34;;;;;;;3.58;3.13;;;;;;;22.38;47.16;98329.31;10506135;28;20047;-57
2022/09/05 13:15:40;;;;;;;4.90;3.60;;;;;;;22.49;47.57;98299.81;10505539;28;20055;-57
2022/09/05 13:20:50;;;;;;;4.13;3.30;;;;;;;22.73;46.34;98319.97;10505573;28;20055;-57
2022/09/05 13:25:57;;;;;;;4.72;3.45;;;;;;;23.06;45.54;98310.69;10505927;28;20468;-57
2022/09/05 13:31:06;;;;;;;5.03;3.35;;;;;;;23.49;44.40;98309.72;10505247;28;20066;-57
2022/09/05 13:36:06;;;;;;;5.32;3.47;;;;;;;23.60;44.57;98312.75;10512070;27;20069;-57
2022/09/05 13:41:12;;;;;;;5.75;3.45;;;;;;;23.77;44.50;98313.75;10528292;27;20065;-57
2022/09/05 13:46:17;;;;;;;5.10;3.58;;;;;;;23.71;44.10;98308.75;10528116;27;20035;-57
2022/09/05 13:51:49;;;;;;;4.07;2.90;;;;;;;23.39;44.59;98303.94;10546220;27;20085;-57
2022/09/05 13:57:15;;;;;;;5.15;3.30;;;;;;;22.95;44.33;98308.50;10527733;27;20039;-57
2022/09/05 14:02:18;;;;;;;5.03;3.08;;;;;;;22.72;45.09;98312.97;10545224;27;20055;-57
2022/09/05 14:07:36;;;;;;;3.95;2.95;;;;;;;22.51;45.40;98308.56;10545991;27;20493;-57
2022/09/05 14:12:45;;;;;;;9.95;5.30;;;;;;;22.55;45.65;98307.47;10546461;27;20062;-57
2022/09/05 14:18:08;;;;;;;6.05;3.70;;;;;;;22.73;44.95;98309.38;10545533;27;20057;-57
2022/09/05 14:23:14;;;;;;;4.55;3.20;;;;;;;23.20;44.34;98313.63;10545103;27;20059;-57
2022/09/05 14:28:24;;;;;;;3.90;3.10;;;;;;;23.45;44.84;98316.06;10525725;27;20063;-57
2022/09/05 14:33:35;;;;;;;4.40;3.15;;;;;;;23.46;44.24;98320.41;10542132;27;20059;-57
2022/09/05 14:39:06;;;;;;;3.63;3.08;;;;;;;23.49;45.13;98315.03;10543131;27;20546;-57
2022/09/05 14:44:44;;;;;;;3.58;2.80;;;;;;;23.57;43.68;98326.13;10499531;27;20128;-57
2022/09/05 14:49:43;;;;;;;7.05;3.78;;;;;;;23.63;43.71;98323.22;10488890;28;20509;-56
2022/09/05 14:54:42;;;;;;;5.13;3.03;;;;;;;23.48;43.58;98318.59;10500886;28;20525;-56
2022/09/05 14:59:46;;;;;;;5.05;3.25;;;;;;;23.39;44.53;98318.97;10520390;27;20055;-57
2022/09/05 15:04:59;;;;;;;4.22;3.05;;;;;;;23.10;44.92;98318.44;10542132;27;20070;-56
2022/09/05 15:10:06;;;;;;;6.30;3.45;;;;;;;22.79;45.14;98332.97;10542236;27;20563;-56
2022/09/05 15:15:05;;;;;;;4.93;3.40;;;;;;;22.54;45.81;98332.22;10507116;27;20078;-56
2022/09/05 15:20:07;;;;;;;5.28;3.33;;;;;;;22.21;46.47;98340.56;10500111;28;20016;-56
2022/09/05 15:25:17;;;;;;;5.30;3.75;;;;;;;21.99;47.38;98344.94;10499429;28;20069;-56
2022/09/05 15:30:26;;;;;;;4.43;3.03;;;;;;;21.97;47.57;98339.69;10514271;27;20576;-56
2022/09/05 15:35:38;;;;;;;4.43;3.30;;;;;;;21.88;47.62;98340.03;10536624;27;20068;-57
2022/09/05 15:40:37;;;;;;;5.95;3.53;;;;;;;21.80;48.04;98342.94;10540780;28;20055;-57
2022/09/05 15:45:37;;;;;;;4.40;3.10;;;;;;;21.70;48.98;98331.88;10522556;28;20051;-57
2022/09/05 15:50:40;;;;;;;6.55;3.70;;;;;;;21.60;49.57;98341.06;10540780;28;20071;-57
2022/09/05 15:55:50;;;;;;;4.93;3.30;;;;;;;21.46;49.45;98349.47;10506528;28;20059;-57
2022/09/05 16:00:51;;;;;;;5.65;3.30;;;;;;;21.45;49.46;98352.16;10497499;28;20082;-56
2022/09/05 16:05:58;;;;;;;5.10;3.17;;;;;;;21.45;49.78;98346.88;10498831;28;20502;-58
2022/09/05 16:11:31;;;;;;;4.40;3.22;;;;;;;21.57;50.64;98342.94;10498190;28;20057;-57
2022/09/05 16:16:30;;;;;;;3.65;3.20;;;;;;;21.61;50.52;98347.19;10497084;28;20070;-57
2022/09/05 16:21:31;;;;;;;5.05;3.92;;;;;;;21.62;50.79;98348.94;10494946;28;20048;-57
2022/09/05 16:26:38;;;;;;;5.05;3.40;;;;;;;21.51;51.27;98350.16;10519486;27;20070;-57
2022/09/05 16:31:58;;;;;;;10.40;4.70;;;;;;;21.46;52.40;98352.13;10546581;27;20055;-58
2022/09/05 16:37:04;;;;;;;8.48;4.60;;;;;;;21.37;53.95;98348.94;10548136;27;20066;-56
2022/09/05 16:42:15;;;;;;;11.52;5.68;;;;;;;21.14;55.71;98356.69;10547976;27;20058;-58
2022/09/05 16:47:30;;;;;;;8.10;4.68;;;;;;;20.91;56.99;98368.03;10547677;27;20461;-56
2022/09/05 16:53:19;;;;;;;10.93;6.60;;;;;;;20.75;57.05;98358.91;10546766;27;20074;-57
2022/09/05 16:58:27;;;;;;;10.65;5.53;;;;;;;20.59;58.23;98363.81;10509167;27;20063;-56
2022/09/05 17:03:32;;;;;;;14.63;7.75;;;;;;;20.37;59.58;98367.97;10504752;28;20067;-57
2022/09/05 17:08:34;;;;;;;15.27;7.43;;;;;;;20.20;60.57;98363.22;10505189;28;20082;-57
2022/09/05 17:13:50;;;;;;;9.75;6.60;;;;;;;20.03;61.94;98371.63;10504097;28;20089;-57
2022/09/05 17:18:51;;;;;;;10.52;6.05;;;;;;;19.79;63.33;98378.44;10513265;27;20508;-57
2022/09/05 17:23:52;;;;;;;19.90;10.60;;;;;;;19.54;64.69;98376.50;10546522;27;20527;-57
2022/09/05 17:28:52;;;;;;;11.65;7.00;;;;;;;19.32;65.31;98377.94;10427857;27;20068;-57
2022/09/05 17:33:51;;;;;;;12.65;7.38;;;;;;;19.10;66.17;98372.41;10414060;28;20072;-56
2022/09/05 17:38:58;;;;;;;8.45;6.13;;;;;;;18.88;66.27;98380.84;10408294;28;20048;-57
2022/09/05 17:44:32;;;;;;;10.18;6.07;;;;;;;18.66;67.40;98393.56;10418313;28;20064;-57
2022/09/05 17:49:41;;;;;;;10.52;6.50;;;;;;;18.46;68.15;98390.56;10364769;28;20464;-57
2022/09/05 17:54:41;;;;;;;11.95;6.88;;;;;;;18.24;68.80;98391.00;10418434;28;20064;-57
2022/09/05 17:59:39;;;;;;;10.07;6.20;;;;;;;18.11;69.63;98400.06;10419804;28;20060;-57
2022/09/05 18:04:41;;;;;;;13.07;5.32;;;;;;;17.98;70.58;98399.44;10418531;28;20115;-56
2022/09/05 18:09:41;;;;;;;7.78;4.53;;;;;;;17.77;71.06;98396.34;10406758;28;20053;-56
2022/09/05 18:14:41;;;;;;;7.97;5.03;;;;;;;17.58;72.07;98399.34;10377732;28;20496;-56
2022/09/05 18:19:40;;;;;;;7.57;5.35;;;;;;;17.42;72.82;98417.13;10377269;28;20488;-56
2022/09/05 18:24:43;;;;;;;9.38;6.20;;;;;;;17.25;73.37;98406.94;10376235;28;20040;-56
2022/09/05 18:30:01;;;;;;;9.32;6.18;;;;;;;17.09;74.12;98398.47;10377645;28;20056;-56
2022/09/05 18:35:34;;;;;;;11.23;5.15;;;;;;;16.93;74.77;98398.72;10376280;28;20056;-57
2022/09/05 18:40:34;;;;;;;11.90;5.60;;;;;;;16.79;75.41;98403.25;10417199;28;20056;-56
2022/09/05 18:45:34;;;;;;;11.07;5.72;;;;;;;16.69;75.53;98399.06;10417506;28;20064;-57
2022/09/05 18:50:40;;;;;;;8.98;4.35;;;;;;;16.66;75.67;98401.75;10416053;28;20106;-56
2022/09/05 18:56:07;;;;;;;9.85;5.25;;;;;;;16.62;75.97;98403.53;10397863;28;20076;-57
2022/09/05 19:01:21;;;;;;;10.65;5.88;;;;;;;16.45;78.30;98401.16;10410477;28;20066;-57
2022/09/05 19:06:27;;;;;;;9.27;6.05;;;;;;;16.43;78.00;98402.94;10416914;28;20083;-55
2022/09/05 19:11:47;;;;;;;10.18;6.07;;;;;;;16.33;78.56;98397.88;10416019;28;20056;-57
2022/09/05 19:16:46;;;;;;;8.68;5.93;;;;;;;16.32;79.33;98406.59;10415546;28;20102;-57
2022/09/05 19:21:59;;;;;;;11.85;6.22;;;;;;;16.23;79.51;98402.34;10416027;28;20063;-57
2022/09/05 19:26:59;;;;;;;8.82;5.50;;;;;;;16.11;80.33;98392.03;10405997;28;20076;-57
2022/09/05 19:32:09;;;;;;;11.02;5.97;;;;;;;16.00;80.56;98394.81;10415792;28;20056;-57
2022/09/05 19:37:12;;;;;;;10.57;6.15;;;;;;;15.91;81.08;98390.53;10415728;28;20060;-57
2022/09/05 19:42:16;;;;;;;8.88;6.57;;;;;;;15.80;81.65;98379.31;10415990;28;20060;-56
2022/09/05 19:47:19;;;;;;;12.25;5.45;;;;;;;15.73;82.09;98385.50;10414977;28;20068;-56
2022/09/05 19:52:18;;;;;;;8.38;5.40;;;;;;;15.62;83.06;98377.75;10415583;28;20075;-58
2022/09/05 19:57:18;;;;;;;;;;;;;;;15.51;83.48;98384.88;10416361;28;20349;-56
2022/09/05 20:02:31;;;;;;;9.68;5.50;;;;;;;15.43;84.19;98384.94;10420531;28;19962;-56
2022/09/05 20:07:32;;;;;;;8.48;5.03;;;;;;;15.33;84.20;98375.47;10423118;28;20075;-56
2022/09/05 20:12:37;;;;;;;10.90;6.15;;;;;;;15.30;84.32;98386.81;10423686;28;20506;-56
2022/09/05 20:17:38;;;;;;;7.35;5.40;;;;;;;15.23;84.99;98378.16;10422594;28;20063;-56
2022/09/05 20:22:40;;;;;;;11.68;7.22;;;;;;;15.16;85.35;98373.88;10422593;28;20147;-56
2022/09/05 20:27:41;;;;;;;11.77;6.90;;;;;;;15.11;85.74;98374.78;10404722;28;20510;-56
2022/09/05 20:32:45;;;;;;;11.63;6.57;;;;;;;14.87;86.36;98342.75;10422482;28;20059;-56
2022/09/05 20:37:46;;;;;;;12.82;6.80;;;;;;;14.96;86.95;98365.34;10403815;28;20076;-57
2022/09/05 20:42:46;;;;;;;9.45;6.80;;;;;;;14.93;87.02;98365.38;10422669;28;20487;-57
2022/09/05 20:47:49;;;;;;;9.93;6.50;;;;;;;14.92;87.11;98368.84;10421177;28;20479;-57
2022/09/05 20:52:54;;;;;;;10.73;6.60;;;;;;;14.91;87.20;98361.91;10421814;28;20458;-57
2022/09/05 20:58:12;;;;;;;13.43;6.65;;;;;;;14.88;87.41;98375.00;10421817;28;20068;-57
2022/09/05 21:03:24;;;;;;;11.35;6.68;;;;;;;14.77;88.53;98360.28;10420916;28;20059;-57
2022/09/05 21:08:33;;;;;;;11.48;6.88;;;;;;;14.79;88.43;98368.97;10421132;28;20932;-56
2022/09/05 21:13:40;;;;;;;12.68;7.40;;;;;;;14.77;88.90;98355.03;10395198;28;20064;-56
2022/09/05 21:18:41;;;;;;;10.32;6.30;;;;;;;14.70;89.46;98361.19;10379883;28;20591;-56
2022/09/05 21:23:40;;;;;;;13.88;7.63;;;;;;;14.65;89.94;98364.72;10379453;28;20060;-56
2022/09/05 21:28:39;;;;;;;;;;;;;;;14.56;90.75;98361.25;10379507;28;20064;-57
2022/09/05 21:33:42;;;;;;;12.85;8.35;;;;;;;14.56;90.79;98358.66;10380360;28;20353;-56
2022/09/05 21:38:42;;;;;;;14.38;8.70;;;;;;;14.48;91.19;98355.25;10395153;28;20060;-57
2022/09/05 21:43:41;;;;;;;13.73;7.93;;;;;;;14.47;91.54;98360.47;10419846;28;20068;-56
2022/09/05 21:48:40;;;;;;;;;;;;;;;14.45;91.81;98362.22;10419974;28;20049;-57
2022/09/05 21:53:50;;;;;;;11.57;7.72;;;;;;;14.35;92.51;98356.19;10419505;28;20017;-56
2022/09/05 21:58:54;;;;;;;16.15;8.85;;;;;;;14.27;93.02;98352.78;10418438;28;20055;-56
2022/09/05 22:03:57;;;;;;;12.80;8.65;;;;;;;14.17;93.03;98365.00;10419526;28;20526;-57
2022/09/05 22:08:57;;;;;;;14.13;9.55;;;;;;;14.10;93.27;98364.19;10417920;28;20047;-56
2022/09/05 22:13:57;;;;;;;23.35;17.33;;;;;;;13.98;94.14;98364.22;10416712;28;20060;-57
2022/09/05 22:18:59;;;;;;;31.60;17.42;;;;;;;13.88;94.24;98368.63;10415244;28;20047;-57
2022/09/05 22:24:03;;;;;;;16.98;12.85;;;;;;;13.82;94.35;98363.47;10414356;28;20473;-56
2022/09/05 22:29:03;;;;;;;17.38;11.60;;;;;;;13.78;94.34;98364.34;10415277;28;20063;-57
2022/09/05 22:34:02;;;;;;;17.63;10.73;;;;;;;13.73;94.62;98366.97;10417712;28;20063;-57
2022/09/05 22:39:01;;;;;;;;;;;;;;;13.71;95.00;98365.25;10417601;28;20059;-56
2022/09/05 22:43:59;;;;;;;18.50;10.57;;;;;;;13.67;95.05;98360.91;10417026;28;20003;-56
2022/09/05 22:48:58;;;;;;;16.70;10.32;;;;;;;13.66;95.20;98364.38;10417350;28;20032;-56
2022/09/05 22:53:57;;;;;;;14.85;10.90;;;;;;;13.60;95.97;98365.25;10417525;28;20039;-56
2022/09/05 22:58:56;;;;;;;15.32;11.15;;;;;;;13.47;96.89;98364.41;10416279;28;20028;-56
2022/09/05 23:03:55;;;;;;;16.10;10.75;;;;;;;13.48;97.16;98350.50;10416504;28;20084;-56
2022/09/05 23:08:54;;;;;;;13.73;9.98;;;;;;;13.44;97.23;98356.56;10416108;28;20724;-56
2022/09/05 23:13:53;;;;;;;21.00;12.43;;;;;;;13.35;97.43;98348.78;10416377;28;20570;-57
2022/09/05 23:18:52;;;;;;;18.50;12.13;;;;;;;13.27;98.00;98338.38;10416654;28;20445;-56
2022/09/05 23:23:51;;;;;;;18.58;12.05;;;;;;;13.24;97.96;98345.34;10415955;28;20040;-56
2022/09/05 23:28:50;;;;;;;17.95;11.15;;;;;;;13.15;98.39;98335.81;10415624;28;20519;-56
2022/09/05 23:33:50;;;;;;;19.38;12.25;;;;;;;13.05;98.82;98334.97;10416167;28;20070;-56
2022/09/05 23:38:49;;;;;;;21.40;12.60;;;;;;;12.99;99.32;98334.97;10415677;28;20673;-56
2022/09/05 23:43:48;;;;;;;19.23;12.60;;;;;;;12.98;99.33;98343.66;10415422;28;20593;-56
2022/09/05 23:48:47;;;;;;;18.65;12.60;;;;;;;12.97;99.35;98344.50;10415739;28;20048;-56
2022/09/05 23:53:46;;;;;;;20.83;12.73;;;;;;;12.96;99.17;98344.53;10415615;28;20040;-56
2022/09/05 23:58:45;;;;;;;19.42;13.15;;;;;;;12.97;99.27;98341.06;10415317;28;20119;-56
